Time;durP1;ratioP1;P1;durP2;ratioP2;P2;SDS_P1;SDS_P2;PMS_P1;PMS_P2;Temp;Humidity;BMP_temperature;BMP_pressure;BME280_temperature;BME280_humidity;BME280_pressure;Samples;Min_cycle;Max_cycle;Signal;HPM_P1;HPM_P2
2023/03/15 00:00:10;;;;;;;0.50;0.43;;;;;;;;;;1022463;29;20038;-81
2023/03/15 00:00:41;;;;;;;1.00;0.50;;;;;;;;;;1022068;28;20027;-81
2023/03/15 00:01:14;;;;;;;0.77;0.60;;;;;;;;;;1022590;29;20059;-80
2023/03/15 00:01:45;;;;;;;0.50;0.50;;;;;;;;;;1022707;29;20027;-80
2023/03/15 00:02:16;;;;;;;1.23;0.73;;;;;;;;;;1022290;28;20058;-81
2023/03/15 00:02:47;;;;;;;0.90;0.60;;;;;;;;;;1022847;29;20027;-80
2023/03/15 00:03:18;;;;;;;1.13;0.57;;;;;;;;;;1022762;29;20106;-81
2023/03/15 00:03:49;;;;;;;0.95;0.60;;;;;;;;;;1026921;28;20105;-81
2023/03/15 00:04:20;;;;;;;0.43;0.43;;;;;;;;;;1023118;29;20046;-81
2023/03/15 00:04:53;;;;;;;0.60;0.60;;;;;;;;;;1022787;29;20027;-81
2023/03/15 00:05:24;;;;;;;0.68;0.60;;;;;;;;;;1018815;28;20035;-82
2023/03/15 00:05:55;;;;;;;0.45;0.45;;;;;;;;;;1017890;29;20044;-82
2023/03/15 00:06:26;;;;;;;1.13;0.52;;;;;;;;;;1019835;29;20031;-81
2023/03/15 00:06:57;;;;;;;0.65;0.50;;;;;;;;;;1015130;29;20091;-80
2023/03/15 00:07:28;;;;;;;1.20;0.85;;;;;;;;;;1018311;29;20056;-81
2023/03/15 00:08:00;;;;;;;0.87;0.50;;;;;;;;;;1014893;29;20472;-81
2023/03/15 00:08:32;;;;;;;0.50;0.50;;;;;;;;;;1015375;29;20327;-82
2023/03/15 00:09:03;;;;;;;2.15;0.60;;;;;;;;;;1014806;29;20210;-81
2023/03/15 00:09:34;;;;;;;0.63;0.50;;;;;;;;;;1015498;29;20179;-82
2023/03/15 00:10:05;;;;;;;1.35;0.60;;;;;;;;;;1014339;29;20119;-81
2023/03/15 00:10:39;;;;;;;0.43;0.43;;;;;;;;;;1011017;29;20488;-81
2023/03/15 00:11:10;;;;;;;0.40;0.40;;;;;;;;;;1018885;29;20054;-81
2023/03/15 00:11:41;;;;;;;0.40;0.40;;;;;;;;;;1023321;28;20023;-81
2023/03/15 00:12:12;;;;;;;0.40;0.40;;;;;;;;;;1019925;29;20202;-80
2023/03/15 00:12:43;;;;;;;0.80;0.55;;;;;;;;;;1018653;29;20034;-81
2023/03/15 00:13:14;;;;;;;0.85;0.40;;;;;;;;;;1018014;29;20028;-81
2023/03/15 00:13:46;;;;;;;0.90;0.40;;;;;;;;;;1018965;29;20102;-81
2023/03/15 00:14:17;;;;;;;0.50;0.50;;;;;;;;;;1022945;28;20042;-81
2023/03/15 00:14:49;;;;;;;1.02;0.50;;;;;;;;;;1026389;28;20023;-81
2023/03/15 00:15:20;;;;;;;0.50;0.40;;;;;;;;;;1026828;28;20026;-81
2023/03/15 00:15:52;;;;;;;0.40;0.40;;;;;;;;;;1026465;28;20034;-81
2023/03/15 00:16:25;;;;;;;0.40;0.40;;;;;;;;;;1026328;28;20019;-81
2023/03/15 00:16:56;;;;;;;0.55;0.50;;;;;;;;;;1022726;29;20024;-81
2023/03/15 00:17:27;;;;;;;0.50;0.50;;;;;;;;;;1024458;28;20031;-80
2023/03/15 00:17:58;;;;;;;1.27;0.52;;;;;;;;;;1022964;29;20205;-81
2023/03/15 00:18:29;;;;;;;0.50;0.40;;;;;;;;;;1022896;29;20106;-80
2023/03/15 00:19:00;;;;;;;0.50;0.50;;;;;;;;;;1022645;28;20083;-81
2023/03/15 00:19:31;;;;;;;0.75;0.50;;;;;;;;;;1026648;28;20035;-81
2023/03/15 00:20:03;;;;;;;0.50;0.50;;;;;;;;;;1022498;28;20081;-81
2023/03/15 00:20:36;;;;;;;0.70;0.55;;;;;;;;;;1018859;29;20560;-81
2023/03/15 00:21:07;;;;;;;0.43;0.43;;;;;;;;;;1014498;29;20028;-81
2023/03/15 00:21:39;;;;;;;0.50;0.50;;;;;;;;;;1015084;29;20088;-81
2023/03/15 00:22:10;;;;;;;0.60;0.60;;;;;;;;;;1019276;29;20513;-81
2023/03/15 00:22:41;;;;;;;1.33;0.60;;;;;;;;;;1019255;29;20031;-80
2023/03/15 00:23:12;;;;;;;0.93;0.57;;;;;;;;;;1018048;29;20106;-81
2023/03/15 00:23:43;;;;;;;0.50;0.50;;;;;;;;;;1014752;29;20050;-81
2023/03/15 00:24:14;;;;;;;0.90;0.60;;;;;;;;;;1015144;29;20044;-80
2023/03/15 00:24:45;;;;;;;0.85;0.60;;;;;;;;;;1018483;29;20162;-82
2023/03/15 00:25:16;;;;;;;1.00;0.60;;;;;;;;;;1022667;28;20146;-81
2023/03/15 00:25:48;;;;;;;0.50;0.50;;;;;;;;;;1026962;28;20022;-82
2023/03/15 00:26:19;;;;;;;1.08;0.40;;;;;;;;;;1026635;28;20094;-81
2023/03/15 00:26:50;;;;;;;0.50;0.50;;;;;;;;;;1026638;28;20086;-82
2023/03/15 00:27:21;;;;;;;0.85;0.55;;;;;;;;;;1024948;28;20441;-80
2023/03/15 00:27:52;;;;;;;0.50;0.50;;;;;;;;;;1023286;29;20032;-80
2023/03/15 00:28:23;;;;;;;0.95;0.60;;;;;;;;;;1023933;28;20031;-80
2023/03/15 00:28:54;;;;;;;0.73;0.50;;;;;;;;;;1022715;29;20037;-82
2023/03/15 00:29:25;;;;;;;0.50;0.40;;;;;;;;;;1022761;29;20031;-82
2023/03/15 00:29:56;;;;;;;1.05;0.52;;;;;;;;;;1022793;28;20057;-82
2023/03/15 00:30:27;;;;;;;0.45;0.40;;;;;;;;;;1019149;29;20046;-82
2023/03/15 00:31:08;;;;;;;0.40;0.40;;;;;;;;;;1022596;28;20387;-80
2023/03/15 00:31:39;;;;;;;0.40;0.40;;;;;;;;;;1021555;29;20167;-80
2023/03/15 00:32:10;;;;;;;0.55;0.52;;;;;;;;;;1022986;28;20082;-81
2023/03/15 00:32:41;;;;;;;0.52;0.50;;;;;;;;;;1026279;28;20521;-81
2023/03/15 00:33:13;;;;;;;0.50;0.50;;;;;;;;;;1026919;28;20019;-81
2023/03/15 00:33:44;;;;;;;0.50;0.50;;;;;;;;;;1026388;28;20113;-81
2023/03/15 00:34:15;;;;;;;0.40;0.40;;;;;;;;;;1022424;29;20098;-81
2023/03/15 00:34:47;;;;;;;0.70;0.50;;;;;;;;;;1022418;29;20104;-81
2023/03/15 00:35:19;;;;;;;0.75;0.40;;;;;;;;;;1022388;28;20023;-80
2023/03/15 00:35:52;;;;;;;0.40;0.40;;;;;;;;;;1018474;29;20024;-81
2023/03/15 00:36:23;;;;;;;0.50;0.50;;;;;;;;;;1018978;29;20011;-81
2023/03/15 00:36:54;;;;;;;0.60;0.60;;;;;;;;;;1019291;29;20026;-81
2023/03/15 00:37:25;;;;;;;1.05;0.50;;;;;;;;;;1022659;29;20102;-82
2023/03/15 00:37:56;;;;;;;0.50;0.50;;;;;;;;;;1022979;29;20019;-81
2023/03/15 00:38:27;;;;;;;0.52;0.40;;;;;;;;;;1023689;29;20186;-81
2023/03/15 00:38:58;;;;;;;0.60;0.60;;;;;;;;;;1023046;29;20070;-80
2023/03/15 00:39:29;;;;;;;1.08;0.60;;;;;;;;;;1026763;28;20019;-80
2023/03/15 00:40:00;;;;;;;1.30;0.40;;;;;;;;;;1026678;28;20077;-81
2023/03/15 00:40:32;;;;;;;0.65;0.50;;;;;;;;;;1022698;28;20074;-83
2023/03/15 00:41:07;;;;;;;0.68;0.40;;;;;;;;;;1023992;29;20026;-81
2023/03/15 00:41:38;;;;;;;0.50;0.50;;;;;;;;;;1020324;29;20483;-81
2023/03/15 00:42:09;;;;;;;0.45;0.40;;;;;;;;;;1024568;28;20095;-82
2023/03/15 00:42:49;;;;;;;0.52;0.38;;;;;;;;;;1023244;29;20026;-83
2023/03/15 00:43:20;;;;;;;0.82;0.52;;;;;;;;;;1018611;29;20015;-81
2023/03/15 00:43:51;;;;;;;0.80;0.60;;;;;;;;;;1021440;28;20066;-81
2023/03/15 00:44:23;;;;;;;0.95;0.55;;;;;;;;;;1019832;29;20274;-81
2023/03/15 00:44:54;;;;;;;0.75;0.55;;;;;;;;;;1023966;29;20030;-81
2023/03/15 00:46:34;;;;;;;0.93;0.80;;;;;;;;;;1022082;28;20015;-81
2023/03/15 00:47:11;;;;;;;0.85;0.50;;;;;;;;;;1023590;28;20680;-82
2023/03/15 00:48:12;;;;;;;1.27;0.50;;;;;;;;;;1029963;28;20019;-83
2023/03/15 00:48:43;;;;;;;0.43;0.43;;;;;;;;;;1024858;28;20042;-80
2023/03/15 00:49:14;;;;;;;0.65;0.50;;;;;;;;;;1026747;28;20492;-80
2023/03/15 00:49:45;;;;;;;0.52;0.52;;;;;;;;;;1026417;28;20475;-80
2023/03/15 00:50:16;;;;;;;0.60;0.50;;;;;;;;;;1026815;28;20015;-81
2023/03/15 00:50:47;;;;;;;0.50;0.50;;;;;;;;;;1026011;28;20240;-82
2023/03/15 00:51:37;;;;;;;2.95;0.82;;;;;;;;;;1028399;28;20026;-81
2023/03/15 00:52:08;;;;;;;0.45;0.40;;;;;;;;;;1022829;28;20031;-80
2023/03/15 00:52:40;;;;;;;0.47;0.47;;;;;;;;;;1018206;29;20039;-80
2023/03/15 00:53:11;;;;;;;0.50;0.50;;;;;;;;;;1021248;29;20027;-80
2023/03/15 00:53:43;;;;;;;0.60;0.57;;;;;;;;;;1022525;29;20098;-80
2023/03/15 00:54:14;;;;;;;0.50;0.50;;;;;;;;;;1023028;29;20250;-79
2023/03/15 00:54:52;;;;;;;0.60;0.60;;;;;;;;;;1022502;29;20039;-82
2023/03/15 00:55:23;;;;;;;0.60;0.60;;;;;;;;;;1022660;29;20030;-82
2023/03/15 00:55:54;;;;;;;1.00;0.60;;;;;;;;;;1025950;28;20054;-81
2023/03/15 00:56:27;;;;;;;0.40;0.40;;;;;;;;;;1026821;28;20025;-81
2023/03/15 00:56:57;;;;;;;0.65;0.50;;;;;;;;;;1022367;29;20479;-80
2023/03/15 00:57:29;;;;;;;0.55;0.55;;;;;;;;;;1018492;29;20483;-80
2023/03/15 00:58:00;;;;;;;0.60;0.45;;;;;;;;;;1017907;29;20031;-81
2023/03/15 00:58:30;;;;;;;0.82;0.60;;;;;;;;;;1015159;29;20063;-81
2023/03/15 00:59:01;;;;;;;1.55;0.60;;;;;;;;;;1018319;29;20038;-81
2023/03/15 00:59:34;;;;;;;0.50;0.50;;;;;;;;;;1022883;29;20023;-80
2023/03/15 01:00:05;;;;;;;0.60;0.60;;;;;;;;;;1022585;28;20110;-81
2023/03/15 01:00:37;;;;;;;1.35;0.60;;;;;;;;;;1026323;28;20015;-81
2023/03/15 01:01:12;;;;;;;0.85;0.60;;;;;;;;;;1026243;28;20060;-81
2023/03/15 01:01:43;;;;;;;1.17;0.50;;;;;;;;;;1026743;28;20034;-81
2023/03/15 01:02:14;;;;;;;1.20;0.70;;;;;;;;;;1025267;28;20027;-80
2023/03/15 01:02:46;;;;;;;0.68;0.40;;;;;;;;;;1026483;28;20022;-80
2023/03/15 01:03:17;;;;;;;1.67;0.80;;;;;;;;;;1026296;28;20033;-81
2023/03/15 01:03:48;;;;;;;0.50;0.50;;;;;;;;;;1022639;29;20034;-80
2023/03/15 01:04:19;;;;;;;0.47;0.47;;;;;;;;;;1020697;29;20106;-80
2023/03/15 01:04:50;;;;;;;0.57;0.57;;;;;;;;;;1018831;29;20020;-80
2023/03/15 01:05:22;;;;;;;0.90;0.60;;;;;;;;;;1019489;29;20027;-81
2023/03/15 01:05:53;;;;;;;0.80;0.50;;;;;;;;;;1026474;28;20023;-80
2023/03/15 01:06:25;;;;;;;0.50;0.50;;;;;;;;;;1026337;28;20019;-81
2023/03/15 01:06:56;;;;;;;0.50;0.40;;;;;;;;;;1026456;28;20027;-81
2023/03/15 01:07:27;;;;;;;0.50;0.50;;;;;;;;;;1026223;28;20544;-80
2023/03/15 01:07:58;;;;;;;0.38;0.38;;;;;;;;;;1026656;28;20494;-80
2023/03/15 01:08:30;;;;;;;0.47;0.47;;;;;;;;;;1026081;28;20025;-80
2023/03/15 01:09:01;;;;;;;1.00;0.65;;;;;;;;;;1022413;29;20875;-80
2023/03/15 01:09:32;;;;;;;0.68;0.60;;;;;;;;;;1022607;29;20596;-80
2023/03/15 01:10:04;;;;;;;0.77;0.57;;;;;;;;;;1023271;28;20030;-81
2023/03/15 01:10:35;;;;;;;1.15;0.60;;;;;;;;;;1022394;29;20118;-81
2023/03/15 01:11:07;;;;;;;1.33;0.55;;;;;;;;;;1022092;28;20553;-81
2023/03/15 01:11:38;;;;;;;0.55;0.55;;;;;;;;;;1022472;29;20027;-80
2023/03/15 01:12:09;;;;;;;0.55;0.50;;;;;;;;;;1022137;29;20027;-81
2023/03/15 01:12:40;;;;;;;0.80;0.60;;;;;;;;;;1021833;29;20073;-80
2023/03/15 01:13:11;;;;;;;1.15;0.63;;;;;;;;;;1022781;28;20051;-81
2023/03/15 01:13:43;;;;;;;1.02;0.70;;;;;;;;;;1026132;28;20045;-80
2023/03/15 01:14:14;;;;;;;0.70;0.60;;;;;;;;;;1026362;28;20065;-81
2023/03/15 01:14:45;;;;;;;0.70;0.55;;;;;;;;;;1021809;29;20019;-81
2023/03/15 01:15:16;;;;;;;1.48;0.70;;;;;;;;;;1018201;29;20688;-80
2023/03/15 01:15:47;;;;;;;2.08;0.88;;;;;;;;;;1018137;29;20607;-81
2023/03/15 01:16:18;;;;;;;0.60;0.47;;;;;;;;;;1014225;29;20016;-80
2023/03/15 01:16:50;;;;;;;0.80;0.60;;;;;;;;;;1018675;29;20090;-81
2023/03/15 01:17:21;;;;;;;1.00;0.68;;;;;;;;;;1022095;29;20030;-81
2023/03/15 01:17:52;;;;;;;0.85;0.57;;;;;;;;;;1022286;28;20106;-81
2023/03/15 01:18:23;;;;;;;0.50;0.50;;;;;;;;;;1026024;28;20014;-81
2023/03/15 01:18:54;;;;;;;0.50;0.50;;;;;;;;;;1021866;29;20026;-80
2023/03/15 01:19:25;;;;;;;0.82;0.60;;;;;;;;;;1022077;28;20055;-81
2023/03/15 01:19:57;;;;;;;0.50;0.50;;;;;;;;;;1021962;29;20129;-80
2023/03/15 01:20:28;;;;;;;1.40;0.60;;;;;;;;;;1022395;28;20034;-80
2023/03/15 01:20:59;;;;;;;0.70;0.60;;;;;;;;;;1025789;28;20026;-80
2023/03/15 01:21:30;;;;;;;0.63;0.63;;;;;;;;;;1026144;28;20034;-81
2023/03/15 01:22:01;;;;;;;0.98;0.70;;;;;;;;;;1025589;28;20058;-80
2023/03/15 01:22:32;;;;;;;0.60;0.60;;;;;;;;;;1022624;28;20030;-80
2023/03/15 01:23:03;;;;;;;0.60;0.60;;;;;;;;;;1021806;29;20137;-80
2023/03/15 01:23:34;;;;;;;1.02;0.60;;;;;;;;;;1022244;28;20015;-80
2023/03/15 01:24:05;;;;;;;0.77;0.52;;;;;;;;;;1021905;29;20023;-80
2023/03/15 01:24:36;;;;;;;1.00;0.47;;;;;;;;;;1017971;29;20032;-81
2023/03/15 01:25:08;;;;;;;0.47;0.45;;;;;;;;;;1017477;29;20130;-81
2023/03/15 01:25:39;;;;;;;0.52;0.52;;;;;;;;;;1018247;29;20665;-80
2023/03/15 01:26:11;;;;;;;1.27;0.52;;;;;;;;;;1014507;29;20020;-80
2023/03/15 01:26:42;;;;;;;0.60;0.60;;;;;;;;;;1018788;29;20102;-81
2023/03/15 01:27:13;;;;;;;0.75;0.57;;;;;;;;;;1021631;29;20031;-80
2023/03/15 01:27:44;;;;;;;0.60;0.60;;;;;;;;;;1022158;29;20051;-80
2023/03/15 01:28:16;;;;;;;0.73;0.60;;;;;;;;;;1022040;28;20037;-80
2023/03/15 01:28:47;;;;;;;0.80;0.73;;;;;;;;;;1018273;29;20028;-80
2023/03/15 01:29:18;;;;;;;1.55;0.75;;;;;;;;;;1018094;29;20034;-80
2023/03/15 01:29:49;;;;;;;0.50;0.50;;;;;;;;;;1014701;29;20031;-81
2023/03/15 01:30:20;;;;;;;1.95;0.80;;;;;;;;;;1014493;29;20353;-80
2023/03/15 01:30:52;;;;;;;0.50;0.50;;;;;;;;;;1014655;29;20637;-81
2023/03/15 01:31:24;;;;;;;0.52;0.50;;;;;;;;;;1014537;29;20032;-81
2023/03/15 01:31:55;;;;;;;1.00;0.60;;;;;;;;;;1014888;29;20031;-80
2023/03/15 01:32:27;;;;;;;0.73;0.63;;;;;;;;;;1018795;29;20099;-80
2023/03/15 01:32:58;;;;;;;0.60;0.60;;;;;;;;;;1022385;29;20033;-80
2023/03/15 01:33:29;;;;;;;0.93;0.60;;;;;;;;;;1022792;29;20031;-80
2023/03/15 01:34:00;;;;;;;1.23;0.50;;;;;;;;;;1026011;28;20122;-80
2023/03/15 01:34:31;;;;;;;0.50;0.50;;;;;;;;;;1022290;29;20073;-79
2023/03/15 01:35:02;;;;;;;0.73;0.40;;;;;;;;;;1017777;29;20036;-80
2023/03/15 01:35:33;;;;;;;0.57;0.57;;;;;;;;;;1017697;29;20052;-80
2023/03/15 01:36:05;;;;;;;0.70;0.68;;;;;;;;;;1014276;29;20024;-79
2023/03/15 01:36:36;;;;;;;0.50;0.50;;;;;;;;;;1018895;29;20106;-80
2023/03/15 01:37:08;;;;;;;1.05;0.60;;;;;;;;;;1024481;28;20306;-80
2023/03/15 01:37:39;;;;;;;0.98;0.50;;;;;;;;;;1025732;28;20037;-81
2023/03/15 01:38:10;;;;;;;0.52;0.52;;;;;;;;;;1021774;29;20019;-80
2023/03/15 01:38:41;;;;;;;0.45;0.45;;;;;;;;;;1021923;28;20463;-80
2023/03/15 01:39:12;;;;;;;0.90;0.65;;;;;;;;;;1021900;29;20095;-80
2023/03/15 01:39:43;;;;;;;0.65;0.50;;;;;;;;;;1022231;29;20034;-81
2023/03/15 01:40:14;;;;;;;0.45;0.45;;;;;;;;;;1025105;28;20058;-81
2023/03/15 01:40:45;;;;;;;2.13;0.60;;;;;;;;;;1022072;29;20031;-81
2023/03/15 01:41:17;;;;;;;1.08;0.60;;;;;;;;;;1021485;29;20030;-81
2023/03/15 01:41:48;;;;;;;1.38;0.60;;;;;;;;;;1018759;29;20035;-80
2023/03/15 01:42:20;;;;;;;1.15;0.60;;;;;;;;;;1022179;28;20031;-80
2023/03/15 01:42:52;;;;;;;0.73;0.60;;;;;;;;;;1025676;28;20046;-80
2023/03/15 01:43:24;;;;;;;1.17;0.60;;;;;;;;;;1025332;28;20027;-80
2023/03/15 01:43:55;;;;;;;0.73;0.47;;;;;;;;;;1022512;28;20030;-80
2023/03/15 01:44:46;;;;;;;0.50;0.50;;;;;;;;;;1025888;28;20030;-80
2023/03/15 01:45:36;;;;;;;0.68;0.60;;;;;;;;;;1025593;28;20137;-80
2023/03/15 01:46:14;;;;;;;0.75;0.60;;;;;;;;;;1021718;29;20027;-80
2023/03/15 01:46:45;;;;;;;0.60;0.60;;;;;;;;;;1018145;29;20024;-80
2023/03/15 01:47:16;;;;;;;0.70;0.68;;;;;;;;;;1013328;29;20267;-80
2023/03/15 01:47:47;;;;;;;1.95;0.80;;;;;;;;;;1013048;29;20119;-80
2023/03/15 01:48:19;;;;;;;0.50;0.50;;;;;;;;;;1013851;29;20027;-80
2023/03/15 01:48:50;;;;;;;1.38;0.55;;;;;;;;;;1019972;28;20032;-79
2023/03/15 01:49:21;;;;;;;0.97;0.60;;;;;;;;;;1025828;28;20034;-82
2023/03/15 01:49:55;;;;;;;1.60;0.70;;;;;;;;;;1024440;28;20883;-80
2023/03/15 01:50:26;;;;;;;1.23;0.65;;;;;;;;;;1026156;28;20583;-79
2023/03/15 01:50:57;;;;;;;0.93;0.57;;;;;;;;;;1025714;28;20727;-81
2023/03/15 01:51:47;;;;;;;0.55;0.52;;;;;;;;;;1022457;28;20031;-80
2023/03/15 01:52:20;;;;;;;0.40;0.40;;;;;;;;;;1022076;29;20387;-79
2023/03/15 01:52:52;;;;;;;0.77;0.40;;;;;;;;;;1022158;29;20035;-80
2023/03/15 01:53:24;;;;;;;1.33;0.70;;;;;;;;;;1022253;29;20028;-80
2023/03/15 01:54:02;;;;;;;0.45;0.40;;;;;;;;;;1018297;29;20058;-79
2023/03/15 01:54:33;;;;;;;0.40;0.40;;;;;;;;;;1017769;29;20043;-80
2023/03/15 01:55:12;;;;;;;0.50;0.50;;;;;;;;;;1022474;29;20137;-79
2023/03/15 01:55:43;;;;;;;0.57;0.55;;;;;;;;;;1018275;29;20271;-80
2023/03/15 01:56:15;;;;;;;0.52;0.50;;;;;;;;;;1021898;28;20110;-79
2023/03/15 01:56:52;;;;;;;1.77;0.75;;;;;;;;;;1026210;28;20398;-80
2023/03/15 01:57:25;;;;;;;0.90;0.60;;;;;;;;;;1022256;29;20514;-79
2023/03/15 01:57:58;;;;;;;0.77;0.60;;;;;;;;;;1022198;29;20681;-80
2023/03/15 01:58:30;;;;;;;0.60;0.60;;;;;;;;;;1022394;29;20031;-80
2023/03/15 01:59:03;;;;;;;1.20;0.60;;;;;;;;;;1022808;28;20027;-80
2023/03/15 01:59:40;;;;;;;0.47;0.40;;;;;;;;;;1026352;28;20026;-81
2023/03/15 02:00:13;;;;;;;0.32;0.32;;;;;;;;;;1022029;29;20086;-80
2023/03/15 02:00:44;;;;;;;2.13;0.93;;;;;;;;;;1022287;29;20118;-80
2023/03/15 02:01:15;;;;;;;1.20;0.50;;;;;;;;;;1021784;29;20363;-80
2023/03/15 02:01:47;;;;;;;0.82;0.50;;;;;;;;;;1022380;29;20880;-80
2023/03/15 02:02:21;;;;;;;1.02;0.50;;;;;;;;;;1022375;28;20019;-80
2023/03/15 02:02:54;;;;;;;0.55;0.40;;;;;;;;;;1019228;28;20625;-79
2023/03/15 02:03:29;;;;;;;1.05;0.60;;;;;;;;;;1017048;29;20059;-79
2023/03/15 02:04:07;;;;;;;0.55;0.55;;;;;;;;;;1017840;29;20087;-80
2023/03/15 02:04:45;;;;;;;0.70;0.60;;;;;;;;;;1019939;28;20040;-80
2023/03/15 02:05:19;;;;;;;0.50;0.50;;;;;;;;;;1022255;29;20061;-80
2023/03/15 02:05:58;;;;;;;0.80;0.60;;;;;;;;;;1026271;28;20031;-80
2023/03/15 02:06:33;;;;;;;0.57;0.57;;;;;;;;;;1025946;28;20153;-79
2023/03/15 02:07:05;;;;;;;2.17;0.75;;;;;;;;;;1026206;28;20031;-80
2023/03/15 02:07:36;;;;;;;0.82;0.60;;;;;;;;;;1023843;28;20125;-79
2023/03/15 02:08:08;;;;;;;1.23;0.63;;;;;;;;;;1021913;29;20035;-80
2023/03/15 02:08:41;;;;;;;0.40;0.40;;;;;;;;;;1022233;28;20023;-80
2023/03/15 02:09:14;;;;;;;0.60;0.50;;;;;;;;;;1025954;28;20113;-80
2023/03/15 02:10:03;;;;;;;0.75;0.70;;;;;;;;;;1025983;28;20592;-80
2023/03/15 02:10:36;;;;;;;0.63;0.50;;;;;;;;;;1026177;28;20030;-79
2023/03/15 02:11:07;;;;;;;0.45;0.40;;;;;;;;;;1023262;28;20676;-80
2023/03/15 02:11:38;;;;;;;1.83;0.80;;;;;;;;;;1022358;29;20693;-80
2023/03/15 02:12:10;;;;;;;0.93;0.60;;;;;;;;;;1022260;28;20027;-80
2023/03/15 02:12:44;;;;;;;0.95;0.50;;;;;;;;;;1021958;29;20402;-79
2023/03/15 02:13:16;;;;;;;0.70;0.60;;;;;;;;;;1022016;28;20114;-79
2023/03/15 02:13:48;;;;;;;1.05;0.90;;;;;;;;;;1018189;29;20059;-80
2023/03/15 02:14:21;;;;;;;0.50;0.50;;;;;;;;;;1019051;29;20178;-80
2023/03/15 02:14:52;;;;;;;1.40;0.60;;;;;;;;;;1021990;28;20646;-79
2023/03/15 02:15:24;;;;;;;1.25;0.60;;;;;;;;;;1022783;28;20094;-80
2023/03/15 02:15:55;;;;;;;0.40;0.40;;;;;;;;;;1026154;28;20085;-80
2023/03/15 02:16:28;;;;;;;0.68;0.50;;;;;;;;;;1026103;28;20474;-80
2023/03/15 02:16:59;;;;;;;0.82;0.40;;;;;;;;;;1022139;29;20055;-79
2023/03/15 02:17:37;;;;;;;2.17;0.80;;;;;;;;;;1022662;28;20116;-80
2023/03/15 02:18:08;;;;;;;;;;;;;;;;;;1026462;28;20728;-79
2023/03/15 02:18:39;;;;;;;0.40;0.40;;;;;;;;;;1026666;28;20332;-80
2023/03/15 02:19:17;;;;;;;1.05;0.70;;;;;;;;;;1026043;28;20034;-80
2023/03/15 02:19:55;;;;;;;1.75;0.70;;;;;;;;;;1025991;28;20093;-80
2023/03/15 02:20:45;;;;;;;0.68;0.57;;;;;;;;;;1023948;28;20034;-80
2023/03/15 02:21:21;;;;;;;0.60;0.60;;;;;;;;;;1022064;29;20042;-80
2023/03/15 02:21:58;;;;;;;0.50;0.50;;;;;;;;;;1022543;29;20027;-80
2023/03/15 02:22:39;;;;;;;1.35;0.55;;;;;;;;;;1022425;28;20451;-80
2023/03/15 02:23:14;;;;;;;0.98;0.50;;;;;;;;;;1022403;29;20348;-80
2023/03/15 02:23:46;;;;;;;0.70;0.60;;;;;;;;;;1022762;29;20019;-80
2023/03/15 02:24:36;;;;;;;0.80;0.57;;;;;;;;;;1022226;28;20020;-80
2023/03/15 02:25:29;;;;;;;2.47;0.70;;;;;;;;;;1021946;29;20035;-80
2023/03/15 02:26:13;;;;;;;0.68;0.40;;;;;;;;;;1026275;28;20624;-80
2023/03/15 02:26:46;;;;;;;0.70;0.60;;;;;;;;;;1026161;28;20054;-80
2023/03/15 02:27:22;;;;;;;0.73;0.63;;;;;;;;;;1025530;28;20418;-82
2023/03/15 02:27:54;;;;;;;0.70;0.70;;;;;;;;;;1019539;29;20035;-80
2023/03/15 02:28:25;;;;;;;1.27;0.50;;;;;;;;;;1017726;29;20067;-80
2023/03/15 02:28:56;;;;;;;0.50;0.50;;;;;;;;;;1019579;29;20055;-80
2023/03/15 02:29:27;;;;;;;0.50;0.50;;;;;;;;;;1021711;29;20020;-80
2023/03/15 02:29:58;;;;;;;1.20;0.50;;;;;;;;;;1022522;29;20351;-81
2023/03/15 02:30:29;;;;;;;0.60;0.60;;;;;;;;;;1021512;29;20348;-80
2023/03/15 02:31:01;;;;;;;1.15;0.80;;;;;;;;;;1022092;29;20487;-80
2023/03/15 02:31:36;;;;;;;0.98;0.60;;;;;;;;;;1021874;29;20101;-80
2023/03/15 02:32:07;;;;;;;1.42;0.60;;;;;;;;;;1018913;29;20130;-80
2023/03/15 02:32:39;;;;;;;0.50;0.50;;;;;;;;;;1021931;29;20023;-80
2023/03/15 02:33:26;;;;;;;0.63;0.60;;;;;;;;;;1022110;29;20047;-80
2023/03/15 02:33:57;;;;;;;0.70;0.47;;;;;;;;;;1026071;28;20023;-80
2023/03/15 02:34:28;;;;;;;1.05;0.60;;;;;;;;;;1026170;28;20023;-80
2023/03/15 02:34:59;;;;;;;0.60;0.60;;;;;;;;;;1023488;28;20030;-80
2023/03/15 02:35:31;;;;;;;0.82;0.40;;;;;;;;;;1022389;28;20570;-80
2023/03/15 02:36:20;;;;;;;1.05;0.60;;;;;;;;;;1025861;28;20023;-80
2023/03/15 02:36:52;;;;;;;1.25;0.68;;;;;;;;;;1022672;29;20094;-80
2023/03/15 02:37:23;;;;;;;0.50;0.50;;;;;;;;;;1026084;28;20021;-81
2023/03/15 02:37:54;;;;;;;1.45;0.77;;;;;;;;;;1020776;28;20020;-80
2023/03/15 02:38:25;;;;;;;1.10;0.60;;;;;;;;;;1021384;29;20023;-80
2023/03/15 02:38:57;;;;;;;1.17;0.67;;;;;;;;;;1021960;28;20019;-80
2023/03/15 02:39:28;;;;;;;0.82;0.50;;;;;;;;;;1022346;29;20301;-80
2023/03/15 02:39:58;;;;;;;0.50;0.50;;;;;;;;;;1022013;29;20030;-80
2023/03/15 02:40:30;;;;;;;0.82;0.70;;;;;;;;;;1018453;29;20020;-80
2023/03/15 02:41:01;;;;;;;0.65;0.60;;;;;;;;;;1017735;29;20024;-80
2023/03/15 02:41:34;;;;;;;0.80;0.60;;;;;;;;;;1018429;29;20060;-80
2023/03/15 02:42:05;;;;;;;1.08;0.60;;;;;;;;;;1017723;29;20836;-80
2023/03/15 02:42:36;;;;;;;1.42;0.60;;;;;;;;;;1019153;29;20020;-80
2023/03/15 02:43:13;;;;;;;0.50;0.50;;;;;;;;;;1021637;29;20102;-80
2023/03/15 02:43:45;;;;;;;0.50;0.50;;;;;;;;;;1023180;28;20042;-80
2023/03/15 02:44:19;;;;;;;0.85;0.60;;;;;;;;;;1021853;29;20604;-80
2023/03/15 02:44:50;;;;;;;0.88;0.55;;;;;;;;;;1022487;29;20022;-80
2023/03/15 02:45:22;;;;;;;1.02;0.80;;;;;;;;;;1021837;29;20074;-80
2023/03/15 02:45:53;;;;;;;0.45;0.45;;;;;;;;;;1022599;29;20098;-81
2023/03/15 02:46:24;;;;;;;0.90;0.60;;;;;;;;;;1022336;28;20605;-80
2023/03/15 02:46:57;;;;;;;0.40;0.40;;;;;;;;;;1022925;28;20016;-79
2023/03/15 02:47:31;;;;;;;0.70;0.57;;;;;;;;;;1025417;28;20015;-79
2023/03/15 02:48:05;;;;;;;0.50;0.50;;;;;;;;;;1025436;28;20744;-79
2023/03/15 02:48:37;;;;;;;0.63;0.50;;;;;;;;;;1018030;29;20020;-79
2023/03/15 02:49:08;;;;;;;1.55;0.47;;;;;;;;;;1020786;28;20053;-79
2023/03/15 02:49:42;;;;;;;0.93;0.57;;;;;;;;;;1018021;29;20086;-81
2023/03/15 02:50:13;;;;;;;0.50;0.40;;;;;;;;;;1018724;28;20414;-81
2023/03/15 02:50:44;;;;;;;0.68;0.50;;;;;;;;;;1021859;29;20827;-79
2023/03/15 02:51:26;;;;;;;0.95;0.63;;;;;;;;;;1021992;29;20513;-79
2023/03/15 02:51:57;;;;;;;0.73;0.63;;;;;;;;;;1024256;28;20107;-79
2023/03/15 02:52:28;;;;;;;0.98;0.65;;;;;;;;;;1024339;28;20042;-81
2023/03/15 02:53:01;;;;;;;0.60;0.57;;;;;;;;;;1022929;29;20027;-81
2023/03/15 02:53:33;;;;;;;0.55;0.55;;;;;;;;;;1022371;28;20011;-79
2023/03/15 02:54:04;;;;;;;0.93;0.40;;;;;;;;;;1025783;28;20109;-81
2023/03/15 02:54:35;;;;;;;0.60;0.50;;;;;;;;;;1021441;29;20032;-81
2023/03/15 02:55:07;;;;;;;0.70;0.60;;;;;;;;;;1023039;29;20410;-81
2023/03/15 02:55:38;;;;;;;0.63;0.63;;;;;;;;;;1022377;29;20058;-81
2023/03/15 02:56:09;;;;;;;0.55;0.55;;;;;;;;;;1015450;29;20033;-80
2023/03/15 02:56:40;;;;;;;0.52;0.50;;;;;;;;;;1018838;29;20118;-81
2023/03/15 02:57:12;;;;;;;0.60;0.50;;;;;;;;;;1019105;29;20079;-81
2023/03/15 02:57:43;;;;;;;1.13;0.50;;;;;;;;;;1022515;28;21554;-80
2023/03/15 02:58:14;;;;;;;0.60;0.50;;;;;;;;;;1019322;29;20582;-81
2023/03/15 02:58:45;;;;;;;1.25;0.60;;;;;;;;;;1018701;29;20028;-81
2023/03/15 02:59:16;;;;;;;0.80;0.60;;;;;;;;;;1016564;29;20165;-81
2023/03/15 02:59:49;;;;;;;0.40;0.40;;;;;;;;;;1022828;29;20117;-81
2023/03/15 03:00:21;;;;;;;1.10;0.63;;;;;;;;;;1022984;29;20023;-79
2023/03/15 03:00:52;;;;;;;0.77;0.77;;;;;;;;;;1019512;28;20483;-79
2023/03/15 03:01:23;;;;;;;0.70;0.45;;;;;;;;;;1023057;29;20447;-80
2023/03/15 03:01:54;;;;;;;0.73;0.63;;;;;;;;;;1022815;29;20050;-79
2023/03/15 03:02:25;;;;;;;0.57;0.50;;;;;;;;;;1023353;28;20023;-80
2023/03/15 03:02:56;;;;;;;0.55;0.55;;;;;;;;;;1026812;28;20030;-80
2023/03/15 03:03:27;;;;;;;1.08;0.60;;;;;;;;;;1027110;28;20018;-80
2023/03/15 03:03:58;;;;;;;0.65;0.47;;;;;;;;;;1022739;29;20146;-80
2023/03/15 03:04:29;;;;;;;0.60;0.50;;;;;;;;;;1022856;28;20062;-80
2023/03/15 03:05:00;;;;;;;0.82;0.70;;;;;;;;;;1018603;29;20123;-81
2023/03/15 03:05:31;;;;;;;1.08;0.55;;;;;;;;;;1019279;29;20023;-79
2023/03/15 03:06:02;;;;;;;1.13;0.80;;;;;;;;;;1018947;29;20031;-81
2023/03/15 03:06:33;;;;;;;2.88;0.60;;;;;;;;;;1019112;29;20783;-78
2023/03/15 03:07:04;;;;;;;0.95;0.60;;;;;;;;;;1019159;29;20755;-79
2023/03/15 03:07:35;;;;;;;0.63;0.63;;;;;;;;;;1021352;29;20051;-80
2023/03/15 03:08:06;;;;;;;0.80;0.60;;;;;;;;;;1022794;29;20082;-81
2023/03/15 03:08:37;;;;;;;1.73;0.60;;;;;;;;;;1019117;29;20032;-80
2023/03/15 03:09:09;;;;;;;1.08;0.65;;;;;;;;;;1018784;29;20036;-81
2023/03/15 03:09:40;;;;;;;1.05;0.68;;;;;;;;;;1017180;29;20143;-81
2023/03/15 03:10:12;;;;;;;1.02;0.50;;;;;;;;;;1019367;29;20083;-80
2023/03/15 03:10:43;;;;;;;1.70;0.70;;;;;;;;;;1022950;29;20078;-80
2023/03/15 03:11:14;;;;;;;1.02;0.80;;;;;;;;;;1023042;29;20079;-80
2023/03/15 03:11:45;;;;;;;0.95;0.60;;;;;;;;;;1022641;29;20050;-80
2023/03/15 03:12:17;;;;;;;0.50;0.50;;;;;;;;;;1023308;29;20042;-80
2023/03/15 03:12:52;;;;;;;1.38;0.68;;;;;;;;;;1022697;29;20027;-80
2023/03/15 03:13:23;;;;;;;0.88;0.80;;;;;;;;;;1023106;28;20423;-80
2023/03/15 03:13:54;;;;;;;0.80;0.60;;;;;;;;;;1023464;29;20486;-81
2023/03/15 03:14:25;;;;;;;1.10;0.75;;;;;;;;;;1023057;29;20102;-80
2023/03/15 03:14:56;;;;;;;0.65;0.50;;;;;;;;;;1026895;28;20484;-81
2023/03/15 03:15:27;;;;;;;1.03;0.80;;;;;;;;;;1026866;28;20838;-80
2023/03/15 03:15:58;;;;;;;0.82;0.60;;;;;;;;;;1027117;28;20285;-80